sensor_id;sensor_type;location;lat;lon;timestamp;pressure;altitude;pressure_sealevel;temperature;humidity
76794;BME280;65745;50.278;18.192;2023-03-05T00:01:44;99465.92;;;2.03;74.63
76794;BME280;65745;50.278;18.192;2023-03-05T00:04:16;99465.71;;;2.02;74.60
76794;BME280;65745;50.278;18.192;2023-03-05T00:06:48;99462.41;;;2.04;74.67
76794;BME280;65745;50.278;18.192;2023-03-05T00:09:20;99458.61;;;2.07;73.98
76794;BME280;65745;50.278;18.192;2023-03-05T00:11:52;99452.80;;;2.09;74.03
76794;BME280;65745;50.278;18.192;2023-03-05T00:14:25;99454.70;;;2.14;73.79
76794;BME280;65745;50.278;18.192;2023-03-05T00:16:57;99453.71;;;2.14;73.69
76794;BME280;65745;50.278;18.192;2023-03-05T00:19:29;99451.66;;;2.14;73.49
76794;BME280;65745;50.278;18.192;2023-03-05T00:22:02;99451.12;;;2.10;73.77
76794;BME280;65745;50.278;18.192;2023-03-05T00:24:34;99451.86;;;2.07;73.55
76794;BME280;65745;50.278;18.192;2023-03-05T00:27:06;99448.27;;;2.07;73.87
76794;BME280;65745;50.278;18.192;2023-03-05T00:29:39;99442.34;;;2.07;73.93
76794;BME280;65745;50.278;18.192;2023-03-05T00:32:11;99439.03;;;2.09;73.92
76794;BME280;65745;50.278;18.192;2023-03-05T00:34:44;99439.95;;;2.15;73.52
76794;BME280;65745;50.278;18.192;2023-03-05T00:37:16;99431.15;;;2.15;73.31
76794;BME280;65745;50.278;18.192;2023-03-05T00:39:49;99425.67;;;2.22;73.05
76794;BME280;65745;50.278;18.192;2023-03-05T00:42:21;99425.84;;;2.22;73.07
76794;BME280;65745;50.278;18.192;2023-03-05T00:44:53;99421.91;;;2.18;72.58
76794;BME280;65745;50.278;18.192;2023-03-05T00:47:26;99420.04;;;2.10;72.93
76794;BME280;65745;50.278;18.192;2023-03-05T00:49:58;99415.16;;;2.04;73.27
76794;BME280;65745;50.278;18.192;2023-03-05T00:52:30;99411.88;;;1.98;73.00
76794;BME280;65745;50.278;18.192;2023-03-05T00:55:03;99407.53;;;1.96;72.90
76794;BME280;65745;50.278;18.192;2023-03-05T00:57:35;99397.98;;;1.96;72.54
76794;BME280;65745;50.278;18.192;2023-03-05T01:00:10;99397.34;;;1.93;72.40
76794;BME280;65745;50.278;18.192;2023-03-05T01:02:44;99398.98;;;1.88;72.03
76794;BME280;65745;50.278;18.192;2023-03-05T01:05:16;99393.60;;;1.85;72.34
76794;BME280;65745;50.278;18.192;2023-03-05T01:07:48;99389.12;;;1.87;72.39
76794;BME280;65745;50.278;18.192;2023-03-05T01:10:23;99390.34;;;1.88;72.13
76794;BME280;65745;50.278;18.192;2023-03-05T01:12:57;99392.05;;;1.89;72.15
76794;BME280;65745;50.278;18.192;2023-03-05T01:15:29;99394.46;;;1.82;71.86
76794;BME280;65745;50.278;18.192;2023-03-05T01:18:01;99387.14;;;1.85;72.38
76794;BME280;65745;50.278;18.192;2023-03-05T01:20:33;99382.98;;;1.94;72.12
76794;BME280;65745;50.278;18.192;2023-03-05T01:23:06;99385.23;;;2.06;72.22
76794;BME280;65745;50.278;18.192;2023-03-05T01:25:38;99381.91;;;2.12;71.83
76794;BME280;65745;50.278;18.192;2023-03-05T01:28:10;99384.61;;;2.11;71.93
76794;BME280;65745;50.278;18.192;2023-03-05T01:30:43;99387.40;;;2.09;71.80
76794;BME280;65745;50.278;18.192;2023-03-05T01:33:15;99395.81;;;2.04;71.70
76794;BME280;65745;50.278;18.192;2023-03-05T01:35:48;99394.34;;;2.05;71.71
76794;BME280;65745;50.278;18.192;2023-03-05T01:38:21;99388.30;;;1.96;71.79
76794;BME280;65745;50.278;18.192;2023-03-05T01:40:53;99389.48;;;1.99;71.96
76794;BME280;65745;50.278;18.192;2023-03-05T01:43:28;99395.91;;;2.06;71.91
76794;BME280;65745;50.278;18.192;2023-03-05T01:46:27;99400.27;;;1.97;71.87
76794;BME280;65745;50.278;18.192;2023-03-05T01:49:19;99403.51;;;1.86;72.71
76794;BME280;65745;50.278;18.192;2023-03-05T01:51:59;99394.52;;;1.94;72.26
76794;BME280;65745;50.278;18.192;2023-03-05T01:54:35;99391.48;;;1.98;72.20
76794;BME280;65745;50.278;18.192;2023-03-05T01:57:11;99391.87;;;1.95;71.49
76794;BME280;65745;50.278;18.192;2023-03-05T01:59:46;99386.83;;;1.90;71.14
76794;BME280;65745;50.278;18.192;2023-03-05T02:02:20;99386.71;;;1.90;70.86
76794;BME280;65745;50.278;18.192;2023-03-05T02:04:56;99383.34;;;1.91;70.54
76794;BME280;65745;50.278;18.192;2023-03-05T02:07:30;99390.59;;;1.86;70.00
76794;BME280;65745;50.278;18.192;2023-03-05T02:10:05;99399.22;;;1.78;69.17
76794;BME280;65745;50.278;18.192;2023-03-05T02:12:44;99391.66;;;1.66;69.67
76794;BME280;65745;50.278;18.192;2023-03-05T02:15:17;99397.29;;;1.62;70.01
76794;BME280;65745;50.278;18.192;2023-03-05T02:17:50;99398.14;;;1.55;69.58
76794;BME280;65745;50.278;18.192;2023-03-05T02:20:23;99389.48;;;1.48;68.00
76794;BME280;65745;50.278;18.192;2023-03-05T02:22:56;99385.48;;;1.43;69.16
76794;BME280;65745;50.278;18.192;2023-03-05T02:25:29;99385.96;;;1.45;69.40
76794;BME280;65745;50.278;18.192;2023-03-05T02:28:05;99382.71;;;1.45;69.56
76794;BME280;65745;50.278;18.192;2023-03-05T02:30:38;99382.13;;;1.47;69.33
76794;BME280;65745;50.278;18.192;2023-03-05T02:33:11;99380.57;;;1.50;69.62
76794;BME280;65745;50.278;18.192;2023-03-05T02:35:44;99376.39;;;1.51;68.84
76794;BME280;65745;50.278;18.192;2023-03-05T02:38:19;99374.59;;;1.53;69.90
76794;BME280;65745;50.278;18.192;2023-03-05T02:40:51;99378.92;;;1.54;69.77
76794;BME280;65745;50.278;18.192;2023-03-05T02:43:24;99372.09;;;1.53;70.71
76794;BME280;65745;50.278;18.192;2023-03-05T02:45:56;99373.59;;;1.67;70.00
76794;BME280;65745;50.278;18.192;2023-03-05T02:48:28;99371.61;;;1.69;69.58
76794;BME280;65745;50.278;18.192;2023-03-05T02:51:01;99370.60;;;1.58;69.31
76794;BME280;65745;50.278;18.192;2023-03-05T02:53:34;99366.15;;;1.57;68.80
76794;BME280;65745;50.278;18.192;2023-03-05T02:56:07;99365.33;;;1.50;68.17
76794;BME280;65745;50.278;18.192;2023-03-05T02:58:39;99368.25;;;1.44;68.53
76794;BME280;65745;50.278;18.192;2023-03-05T03:01:11;99366.52;;;1.40;68.12
76794;BME280;65745;50.278;18.192;2023-03-05T03:03:43;99365.54;;;1.37;68.07
76794;BME280;65745;50.278;18.192;2023-03-05T03:06:16;99362.02;;;1.34;68.64
76794;BME280;65745;50.278;18.192;2023-03-05T03:08:48;99363.73;;;1.35;68.54
76794;BME280;65745;50.278;18.192;2023-03-05T03:11:20;99362.52;;;1.27;68.66
76794;BME280;65745;50.278;18.192;2023-03-05T03:13:52;99356.48;;;1.28;69.09
76794;BME280;65745;50.278;18.192;2023-03-05T03:16:24;99356.80;;;1.28;69.09
76794;BME280;65745;50.278;18.192;2023-03-05T03:18:56;99355.64;;;1.32;68.70
76794;BME280;65745;50.278;18.192;2023-03-05T03:21:29;99353.37;;;1.34;68.92
76794;BME280;65745;50.278;18.192;2023-03-05T03:24:01;99354.45;;;1.32;69.22
76794;BME280;65745;50.278;18.192;2023-03-05T03:26:33;99356.34;;;1.33;68.86
76794;BME280;65745;50.278;18.192;2023-03-05T03:29:05;99351.07;;;1.33;68.87
76794;BME280;65745;50.278;18.192;2023-03-05T03:31:37;99337.72;;;1.30;68.70
76794;BME280;65745;50.278;18.192;2023-03-05T03:34:11;99332.84;;;1.31;68.40
76794;BME280;65745;50.278;18.192;2023-03-05T03:36:45;99322.14;;;1.23;68.10
76794;BME280;65745;50.278;18.192;2023-03-05T03:39:19;99322.98;;;1.12;67.87
76794;BME280;65745;50.278;18.192;2023-03-05T03:41:52;99321.92;;;1.08;68.17
76794;BME280;65745;50.278;18.192;2023-03-05T03:44:26;99325.02;;;1.05;68.53
76794;BME280;65745;50.278;18.192;2023-03-05T03:46:58;99324.52;;;0.95;68.85
76794;BME280;65745;50.278;18.192;2023-03-05T03:49:30;99317.45;;;0.82;69.78
76794;BME280;65745;50.278;18.192;2023-03-05T03:52:03;99312.87;;;0.79;70.26
76794;BME280;65745;50.278;18.192;2023-03-05T03:54:35;99311.96;;;0.77;69.85
76794;BME280;65745;50.278;18.192;2023-03-05T03:57:08;99309.20;;;0.73;69.48
76794;BME280;65745;50.278;18.192;2023-03-05T03:59:40;99302.38;;;0.75;69.91
76794;BME280;65745;50.278;18.192;2023-03-05T04:02:15;99298.87;;;0.73;69.61
76794;BME280;65745;50.278;18.192;2023-03-05T04:04:47;99299.95;;;0.78;69.49
76794;BME280;65745;50.278;18.192;2023-03-05T04:07:21;99298.30;;;0.79;69.38
76794;BME280;65745;50.278;18.192;2023-03-05T04:09:53;99296.91;;;0.78;69.48
76794;BME280;65745;50.278;18.192;2023-03-05T04:12:25;99293.98;;;0.77;69.41
76794;BME280;65745;50.278;18.192;2023-03-05T04:14:58;99295.45;;;0.76;69.44
76794;BME280;65745;50.278;18.192;2023-03-05T04:17:30;99294.59;;;0.72;69.66
76794;BME280;65745;50.278;18.192;2023-03-05T04:20:06;99295.77;;;0.72;69.77
76794;BME280;65745;50.278;18.192;2023-03-05T04:22:40;99292.26;;;0.73;69.96
76794;BME280;65745;50.278;18.192;2023-03-05T04:25:12;99292.52;;;0.71;70.38
76794;BME280;65745;50.278;18.192;2023-03-05T04:27:44;99296.21;;;0.74;70.14
76794;BME280;65745;50.278;18.192;2023-03-05T04:30:17;99301.42;;;0.70;69.58
76794;BME280;65745;50.278;18.192;2023-03-05T04:32:49;99300.68;;;0.65;69.93
76794;BME280;65745;50.278;18.192;2023-03-05T04:35:21;99303.66;;;0.67;70.23
76794;BME280;65745;50.278;18.192;2023-03-05T04:37:54;99303.36;;;0.71;70.05
76794;BME280;65745;50.278;18.192;2023-03-05T04:40:26;99298.96;;;0.75;70.30
76794;BME280;65745;50.278;18.192;2023-03-05T04:42:58;99297.21;;;0.88;70.56
76794;BME280;65745;50.278;18.192;2023-03-05T04:45:30;99295.69;;;1.02;70.88
76794;BME280;65745;50.278;18.192;2023-03-05T04:48:02;99295.27;;;1.18;70.93
76794;BME280;65745;50.278;18.192;2023-03-05T04:50:35;99288.98;;;1.25;70.66
76794;BME280;65745;50.278;18.192;2023-03-05T04:53:07;99286.38;;;1.31;70.40
76794;BME280;65745;50.278;18.192;2023-03-05T04:55:39;99288.53;;;1.37;70.06
76794;BME280;65745;50.278;18.192;2023-03-05T04:58:11;99283.35;;;1.35;69.89
76794;BME280;65745;50.278;18.192;2023-03-05T05:00:43;99285.59;;;1.36;69.69
76794;BME280;65745;50.278;18.192;2023-03-05T05:03:16;99288.59;;;1.35;70.14
76794;BME280;65745;50.278;18.192;2023-03-05T05:05:54;99282.58;;;1.33;70.04
76794;BME280;65745;50.278;18.192;2023-03-05T05:08:27;99284.71;;;1.36;70.39
76794;BME280;65745;50.278;18.192;2023-03-05T05:11:02;99287.00;;;1.34;69.95
76794;BME280;65745;50.278;18.192;2023-03-05T05:13:35;99286.46;;;1.26;70.23
76794;BME280;65745;50.278;18.192;2023-03-05T05:16:08;99285.71;;;1.24;70.19
76794;BME280;65745;50.278;18.192;2023-03-05T05:18:40;99288.80;;;1.28;70.23
76794;BME280;65745;50.278;18.192;2023-03-05T05:21:14;99285.90;;;1.32;70.78
76794;BME280;65745;50.278;18.192;2023-03-05T05:23:48;99290.52;;;1.40;71.39
76794;BME280;65745;50.278;18.192;2023-03-05T05:26:20;99297.52;;;1.44;71.49
76794;BME280;65745;50.278;18.192;2023-03-05T05:28:53;99300.05;;;1.41;71.36
76794;BME280;65745;50.278;18.192;2023-03-05T05:31:25;99300.41;;;1.38;71.10
76794;BME280;65745;50.278;18.192;2023-03-05T05:33:57;99296.52;;;1.19;71.67
76794;BME280;65745;50.278;18.192;2023-03-05T05:36:29;99295.52;;;0.91;73.52
76794;BME280;65745;50.278;18.192;2023-03-05T05:39:01;99295.65;;;0.73;74.44
76794;BME280;65745;50.278;18.192;2023-03-05T05:41:33;99297.99;;;0.69;73.29
76794;BME280;65745;50.278;18.192;2023-03-05T05:44:06;99297.07;;;0.81;72.76
76794;BME280;65745;50.278;18.192;2023-03-05T05:46:38;99297.68;;;0.91;72.43
76794;BME280;65745;50.278;18.192;2023-03-05T05:49:10;99294.23;;;0.90;72.13
76794;BME280;65745;50.278;18.192;2023-03-05T05:51:42;99290.69;;;0.89;72.21
76794;BME280;65745;50.278;18.192;2023-03-05T05:54:15;99287.38;;;0.88;72.04
76794;BME280;65745;50.278;18.192;2023-03-05T05:56:47;99285.56;;;0.85;72.84
76794;BME280;65745;50.278;18.192;2023-03-05T05:59:19;99284.04;;;0.82;73.93
76794;BME280;65745;50.278;18.192;2023-03-05T06:01:51;99282.02;;;0.89;73.87
76794;BME280;65745;50.278;18.192;2023-03-05T06:04:24;99283.36;;;0.96;74.17
76794;BME280;65745;50.278;18.192;2023-03-05T06:06:56;99278.58;;;0.84;74.63
76794;BME280;65745;50.278;18.192;2023-03-05T06:09:30;99275.86;;;0.67;76.28
76794;BME280;65745;50.278;18.192;2023-03-05T06:12:02;99274.02;;;0.61;75.34
76794;BME280;65745;50.278;18.192;2023-03-05T06:14:34;99273.36;;;0.54;75.46
76794;BME280;65745;50.278;18.192;2023-03-05T06:17:06;99274.64;;;0.42;76.72
76794;BME280;65745;50.278;18.192;2023-03-05T06:19:42;99269.62;;;0.33;77.64
76794;BME280;65745;50.278;18.192;2023-03-05T06:22:14;99273.21;;;0.24;78.00
76794;BME280;65745;50.278;18.192;2023-03-05T06:24:47;99269.16;;;0.14;78.42
76794;BME280;65745;50.278;18.192;2023-03-05T06:27:19;99259.14;;;0.20;77.15
76794;BME280;65745;50.278;18.192;2023-03-05T06:29:53;99258.29;;;0.30;76.46
76794;BME280;65745;50.278;18.192;2023-03-05T06:32:26;99254.81;;;0.28;78.29
76794;BME280;65745;50.278;18.192;2023-03-05T06:34:58;99254.59;;;0.30;77.91
76794;BME280;65745;50.278;18.192;2023-03-05T06:37:30;99245.87;;;0.25;78.75
76794;BME280;65745;50.278;18.192;2023-03-05T06:40:03;99248.94;;;0.29;77.48
76794;BME280;65745;50.278;18.192;2023-03-05T06:42:37;99249.89;;;0.28;77.82
76794;BME280;65745;50.278;18.192;2023-03-05T06:45:11;99246.23;;;0.33;76.45
76794;BME280;65745;50.278;18.192;2023-03-05T06:47:43;99246.73;;;0.39;75.79
76794;BME280;65745;50.278;18.192;2023-03-05T06:50:15;99242.96;;;0.49;76.06
76794;BME280;65745;50.278;18.192;2023-03-05T06:52:50;99240.05;;;0.52;76.70
76794;BME280;65745;50.278;18.192;2023-03-05T06:55:22;99238.86;;;0.59;76.86
76794;BME280;65745;50.278;18.192;2023-03-05T06:57:55;99236.05;;;0.64;76.88
76794;BME280;65745;50.278;18.192;2023-03-05T07:00:27;99230.01;;;0.68;76.35
76794;BME280;65745;50.278;18.192;2023-03-05T07:03:00;99229.85;;;0.69;76.36
76794;BME280;65745;50.278;18.192;2023-03-05T07:05:32;99224.20;;;0.67;76.53
76794;BME280;65745;50.278;18.192;2023-03-05T07:08:05;99221.77;;;0.73;76.43
76794;BME280;65745;50.278;18.192;2023-03-05T07:10:40;99214.55;;;0.78;76.97
76794;BME280;65745;50.278;18.192;2023-03-05T07:13:12;99210.11;;;0.77;76.80
76794;BME280;65745;50.278;18.192;2023-03-05T07:15:44;99214.73;;;0.79;76.53
76794;BME280;65745;50.278;18.192;2023-03-05T07:18:17;99211.39;;;0.83;76.28
76794;BME280;65745;50.278;18.192;2023-03-05T07:20:49;99213.80;;;0.88;76.30
76794;BME280;65745;50.278;18.192;2023-03-05T07:23:21;99211.14;;;0.89;76.53
76794;BME280;65745;50.278;18.192;2023-03-05T07:25:53;99209.77;;;0.92;77.18
76794;BME280;65745;50.278;18.192;2023-03-05T07:28:26;99209.95;;;0.99;77.35
76794;BME280;65745;50.278;18.192;2023-03-05T07:30:59;99206.14;;;1.08;77.42
76794;BME280;65745;50.278;18.192;2023-03-05T07:33:33;99207.36;;;1.20;77.12
76794;BME280;65745;50.278;18.192;2023-03-05T07:36:08;99207.10;;;1.30;77.03
76794;BME280;65745;50.278;18.192;2023-03-05T07:38:40;99208.65;;;1.42;76.03
76794;BME280;65745;50.278;18.192;2023-03-05T07:41:15;99207.23;;;1.44;76.92
76794;BME280;65745;50.278;18.192;2023-03-05T07:43:49;99207.90;;;1.44;76.14
76794;BME280;65745;50.278;18.192;2023-03-05T07:46:24;99203.04;;;1.49;75.86
76794;BME280;65745;50.278;18.192;2023-03-05T07:48:56;99203.47;;;1.51;75.91
76794;BME280;65745;50.278;18.192;2023-03-05T07:51:29;99204.58;;;1.53;76.45
76794;BME280;65745;50.278;18.192;2023-03-05T07:54:02;99200.20;;;1.54;76.40
76794;BME280;65745;50.278;18.192;2023-03-05T07:56:35;99197.48;;;1.58;76.43
76794;BME280;65745;50.278;18.192;2023-03-05T07:59:11;99194.25;;;1.58;76.28
76794;BME280;65745;50.278;18.192;2023-03-05T08:01:43;99192.38;;;1.53;76.07
76794;BME280;65745;50.278;18.192;2023-03-05T08:04:16;99192.89;;;1.53;75.89
76794;BME280;65745;50.278;18.192;2023-03-05T08:06:48;99189.92;;;1.52;75.58
76794;BME280;65745;50.278;18.192;2023-03-05T08:09:21;99189.21;;;1.51;75.55
76794;BME280;65745;50.278;18.192;2023-03-05T08:11:53;99190.29;;;1.52;76.21
76794;BME280;65745;50.278;18.192;2023-03-05T08:14:25;99184.30;;;1.55;76.82
76794;BME280;65745;50.278;18.192;2023-03-05T08:16:57;99184.39;;;1.57;77.03
76794;BME280;65745;50.278;18.192;2023-03-05T08:19:29;99183.14;;;1.60;76.24
76794;BME280;65745;50.278;18.192;2023-03-05T08:22:01;99185.80;;;1.58;76.72
76794;BME280;65745;50.278;18.192;2023-03-05T08:24:34;99185.94;;;1.54;76.78
76794;BME280;65745;50.278;18.192;2023-03-05T08:27:06;99183.15;;;1.48;77.11
76794;BME280;65745;50.278;18.192;2023-03-05T08:29:38;99183.58;;;1.46;77.85
76794;BME280;65745;50.278;18.192;2023-03-05T08:32:10;99185.58;;;1.45;78.02
76794;BME280;65745;50.278;18.192;2023-03-05T08:34:43;99187.97;;;1.38;78.75
76794;BME280;65745;50.278;18.192;2023-03-05T08:37:15;99187.09;;;1.38;78.40
76794;BME280;65745;50.278;18.192;2023-03-05T08:39:47;99185.55;;;1.26;78.74
76794;BME280;65745;50.278;18.192;2023-03-05T08:42:19;99182.58;;;1.23;78.48
76794;BME280;65745;50.278;18.192;2023-03-05T08:44:52;99185.14;;;1.28;78.10
76794;BME280;65745;50.278;18.192;2023-03-05T08:47:24;99184.73;;;1.26;78.79
76794;BME280;65745;50.278;18.192;2023-03-05T08:49:57;99183.83;;;1.25;79.40
76794;BME280;65745;50.278;18.192;2023-03-05T08:52:29;99186.41;;;1.30;79.19
76794;BME280;65745;50.278;18.192;2023-03-05T08:55:02;99187.07;;;1.30;78.98
76794;BME280;65745;50.278;18.192;2023-03-05T08:57:34;99186.91;;;1.26;78.97
76794;BME280;65745;50.278;18.192;2023-03-05T09:00:10;99185.86;;;1.29;78.68
76794;BME280;65745;50.278;18.192;2023-03-05T09:02:43;99189.16;;;1.31;78.89
76794;BME280;65745;50.278;18.192;2023-03-05T09:05:16;99187.64;;;1.35;79.03
76794;BME280;65745;50.278;18.192;2023-03-05T09:07:49;99189.33;;;1.35;79.22
76794;BME280;65745;50.278;18.192;2023-03-05T09:10:21;99191.69;;;1.34;79.01
76794;BME280;65745;50.278;18.192;2023-03-05T09:12:54;99188.35;;;1.27;79.26
76794;BME280;65745;50.278;18.192;2023-03-05T09:15:26;99194.04;;;1.26;78.64
76794;BME280;65745;50.278;18.192;2023-03-05T09:17:58;99190.73;;;1.24;79.17
76794;BME280;65745;50.278;18.192;2023-03-05T09:20:32;99193.45;;;1.28;79.37
76794;BME280;65745;50.278;18.192;2023-03-05T09:23:06;99192.20;;;1.23;79.95
76794;BME280;65745;50.278;18.192;2023-03-05T09:25:40;99190.52;;;1.23;79.39
76794;BME280;65745;50.278;18.192;2023-03-05T09:28:12;99188.41;;;1.21;79.23
76794;BME280;65745;50.278;18.192;2023-03-05T09:30:45;99190.19;;;1.23;78.92
76794;BME280;65745;50.278;18.192;2023-03-05T09:33:17;99188.80;;;1.22;79.06
76794;BME280;65745;50.278;18.192;2023-03-05T09:35:50;99183.97;;;1.21;79.50
76794;BME280;65745;50.278;18.192;2023-03-05T09:38:25;99187.52;;;1.24;79.76
76794;BME280;65745;50.278;18.192;2023-03-05T09:41:00;99185.30;;;1.24;78.93
76794;BME280;65745;50.278;18.192;2023-03-05T09:43:46;99187.52;;;1.20;78.92
76794;BME280;65745;50.278;18.192;2023-03-05T09:46:31;99187.73;;;1.17;78.63
76794;BME280;65745;50.278;18.192;2023-03-05T09:49:15;99186.02;;;1.14;78.89
76794;BME280;65745;50.278;18.192;2023-03-05T09:51:51;99184.23;;;1.19;78.74
76794;BME280;65745;50.278;18.192;2023-03-05T09:54:25;99182.78;;;1.21;78.26
76794;BME280;65745;50.278;18.192;2023-03-05T09:57:03;99183.48;;;1.17;77.78
76794;BME280;65745;50.278;18.192;2023-03-05T09:59:46;99181.48;;;1.18;77.50
76794;BME280;65745;50.278;18.192;2023-03-05T10:02:24;99181.89;;;1.20;77.71
76794;BME280;65745;50.278;18.192;2023-03-05T10:05:01;99186.05;;;1.25;77.65
76794;BME280;65745;50.278;18.192;2023-03-05T10:07:37;99180.38;;;1.32;78.64
76794;BME280;65745;50.278;18.192;2023-03-05T10:10:13;99179.13;;;1.42;78.76
76794;BME280;65745;50.278;18.192;2023-03-05T10:12:49;99180.65;;;1.53;78.01
76794;BME280;65745;50.278;18.192;2023-03-05T10:15:28;99177.88;;;1.59;77.65
76794;BME280;65745;50.278;18.192;2023-03-05T10:18:20;99174.09;;;1.66;77.90
76794;BME280;65745;50.278;18.192;2023-03-05T10:20:59;99172.52;;;1.89;77.77
76794;BME280;65745;50.278;18.192;2023-03-05T10:26:37;99163.45;;;2.24;77.15
76794;BME280;65745;50.278;18.192;2023-03-05T10:29:54;99165.79;;;2.44;76.40
76794;BME280;65745;50.278;18.192;2023-03-05T10:32:37;99160.98;;;2.55;75.76
76794;BME280;65745;50.278;18.192;2023-03-05T10:35:22;99154.69;;;2.64;75.16
76794;BME280;65745;50.278;18.192;2023-03-05T10:38:11;99147.80;;;2.75;75.44
76794;BME280;65745;50.278;18.192;2023-03-05T10:40:49;99145.21;;;2.87;75.61
76794;BME280;65745;50.278;18.192;2023-03-05T10:43:26;99143.44;;;2.94;74.45
76794;BME280;65745;50.278;18.192;2023-03-05T10:46:08;99142.22;;;3.02;74.51
76794;BME280;65745;50.278;18.192;2023-03-05T10:48:47;99144.05;;;3.10;74.36
76794;BME280;65745;50.278;18.192;2023-03-05T10:51:24;99139.25;;;3.05;73.81
76794;BME280;65745;50.278;18.192;2023-03-05T10:54:08;99138.38;;;3.00;73.63
76794;BME280;65745;50.278;18.192;2023-03-05T10:56:44;99138.25;;;2.83;72.66
76794;BME280;65745;50.278;18.192;2023-03-05T10:59:16;99135.89;;;2.75;73.32
76794;BME280;65745;50.278;18.192;2023-03-05T11:02:03;99136.90;;;2.66;73.13
76794;BME280;65745;50.278;18.192;2023-03-05T11:04:40;99142.59;;;2.59;73.09
76794;BME280;65745;50.278;18.192;2023-03-05T11:07:36;99140.43;;;2.51;73.64
76794;BME280;65745;50.278;18.192;2023-03-05T11:10:18;99140.77;;;2.47;73.00
76794;BME280;65745;50.278;18.192;2023-03-05T11:12:51;99141.52;;;2.45;73.49
76794;BME280;65745;50.278;18.192;2023-03-05T11:15:29;99133.79;;;2.47;73.26
76794;BME280;65745;50.278;18.192;2023-03-05T11:18:21;99128.80;;;2.54;72.73
76794;BME280;65745;50.278;18.192;2023-03-05T11:21:08;99114.70;;;2.67;72.20
76794;BME280;65745;50.278;18.192;2023-03-05T11:23:40;99109.31;;;2.82;71.74
76794;BME280;65745;50.278;18.192;2023-03-05T11:26:22;99110.60;;;2.99;71.34
76794;BME280;65745;50.278;18.192;2023-03-05T11:28:59;99113.75;;;3.29;70.79
76794;BME280;65745;50.278;18.192;2023-03-05T11:31:33;99113.59;;;3.38;69.08
76794;BME280;65745;50.278;18.192;2023-03-05T11:34:20;99106.94;;;3.43;68.42
76794;BME280;65745;50.278;18.192;2023-03-05T11:37:03;99099.89;;;3.56;68.94
76794;BME280;65745;50.278;18.192;2023-03-05T11:39:39;99101.50;;;3.68;67.74
76794;BME280;65745;50.278;18.192;2023-03-05T11:42:15;99089.50;;;3.80;67.54
76794;BME280;65745;50.278;18.192;2023-03-05T11:44:51;99088.48;;;4.01;67.00
76794;BME280;65745;50.278;18.192;2023-03-05T11:47:32;99080.35;;;4.18;64.78
76794;BME280;65745;50.278;18.192;2023-03-05T11:50:15;99074.80;;;4.26;64.15
76794;BME280;65745;50.278;18.192;2023-03-05T11:52:52;99073.96;;;4.37;64.02
76794;BME280;65745;50.278;18.192;2023-03-05T11:55:29;99073.98;;;4.38;64.32
76794;BME280;65745;50.278;18.192;2023-03-05T11:58:20;99069.83;;;4.31;64.11
76794;BME280;65745;50.278;18.192;2023-03-05T12:00:56;99064.82;;;4.23;63.53
76794;BME280;65745;50.278;18.192;2023-03-05T12:03:31;99069.16;;;4.04;61.68
76794;BME280;65745;50.278;18.192;2023-03-05T12:06:12;99071.26;;;4.01;63.13
76794;BME280;65745;50.278;18.192;2023-03-05T12:08:48;99070.17;;;3.78;61.26
76794;BME280;65745;50.278;18.192;2023-03-05T12:11:24;99069.09;;;3.71;61.60
76794;BME280;65745;50.278;18.192;2023-03-05T12:13:58;99070.16;;;3.63;61.98
76794;BME280;65745;50.278;18.192;2023-03-05T12:16:38;99071.19;;;3.43;60.91
76794;BME280;65745;50.278;18.192;2023-03-05T12:19:27;99068.41;;;3.31;60.99
76794;BME280;65745;50.278;18.192;2023-03-05T12:22:10;99062.83;;;3.23;59.94
76794;BME280;65745;50.278;18.192;2023-03-05T12:24:46;99061.85;;;3.15;59.86
76794;BME280;65745;50.278;18.192;2023-03-05T12:27:34;99054.63;;;3.12;60.80
76794;BME280;65745;50.278;18.192;2023-03-05T12:36:35;99049.77;;;3.20;60.60
76794;BME280;65745;50.278;18.192;2023-03-05T12:39:46;99047.77;;;3.15;61.11
76794;BME280;65745;50.278;18.192;2023-03-05T12:42:45;99044.39;;;3.17;61.11
76794;BME280;65745;50.278;18.192;2023-03-05T12:45:30;99040.78;;;3.15;61.22
76794;BME280;65745;50.278;18.192;2023-03-05T12:51:26;99038.13;;;3.08;61.04
76794;BME280;65745;50.278;18.192;2023-03-05T12:54:23;99028.88;;;3.06;61.33
76794;BME280;65745;50.278;18.192;2023-03-05T12:56:59;99025.62;;;3.05;61.03
76794;BME280;65745;50.278;18.192;2023-03-05T12:59:43;99027.53;;;3.01;61.07
76794;BME280;65745;50.278;18.192;2023-03-05T13:02:30;99026.05;;;2.98;61.82
76794;BME280;65745;50.278;18.192;2023-03-05T13:05:13;99024.65;;;2.92;61.76
76794;BME280;65745;50.278;18.192;2023-03-05T13:07:48;99028.70;;;2.87;62.29
76794;BME280;65745;50.278;18.192;2023-03-05T13:10:27;99025.95;;;2.86;62.68
76794;BME280;65745;50.278;18.192;2023-03-05T13:13:01;99028.20;;;2.82;62.25
76794;BME280;65745;50.278;18.192;2023-03-05T13:15:34;99025.58;;;2.80;62.63
76794;BME280;65745;50.278;18.192;2023-03-05T13:18:17;99024.39;;;2.81;62.72
76794;BME280;65745;50.278;18.192;2023-03-05T13:21:01;99024.65;;;2.82;63.14
76794;BME280;65745;50.278;18.192;2023-03-05T13:23:36;99025.34;;;2.83;62.79
76794;BME280;65745;50.278;18.192;2023-03-05T13:26:14;99018.79;;;2.81;62.85
76794;BME280;65745;50.278;18.192;2023-03-05T13:29:08;99014.80;;;2.78;62.25
76794;BME280;65745;50.278;18.192;2023-03-05T13:31:43;99017.89;;;2.75;62.30
76794;BME280;65745;50.278;18.192;2023-03-05T13:34:19;99010.07;;;2.74;62.39
76794;BME280;65745;50.278;18.192;2023-03-05T13:36:58;99007.65;;;2.78;62.11
76794;BME280;65745;50.278;18.192;2023-03-05T13:39:33;99006.73;;;2.86;62.10
76794;BME280;65745;50.278;18.192;2023-03-05T13:42:16;99011.19;;;2.91;62.47
76794;BME280;65745;50.278;18.192;2023-03-05T13:44:56;99007.84;;;2.92;62.25
76794;BME280;65745;50.278;18.192;2023-03-05T13:47:31;99006.98;;;2.92;62.14
76794;BME280;65745;50.278;18.192;2023-03-05T13:50:20;99006.41;;;2.95;62.19
76794;BME280;65745;50.278;18.192;2023-03-05T13:52:53;99005.52;;;2.99;62.30
76794;BME280;65745;50.278;18.192;2023-03-05T13:55:29;99005.34;;;2.99;62.15